sensor_id;sensor_type;location;lat;lon;timestamp;pressure;altitude;pressure_sealevel;temperature;humidity
50790;BME280;37287;47.554;7.844;2023-04-25T00:01:25;97366.03;;;6.81;98.55
50790;BME280;37287;47.554;7.844;2023-04-25T00:03:53;97372.53;;;6.76;99.01
50790;BME280;37287;47.554;7.844;2023-04-25T00:06:22;97380.53;;;6.72;98.82
50790;BME280;37287;47.554;7.844;2023-04-25T00:08:54;97373.13;;;6.66;99.76
50790;BME280;37287;47.554;7.844;2023-04-25T00:11:22;97365.78;;;6.63;100.00
50790;BME280;37287;47.554;7.844;2023-04-25T00:13:49;97378.34;;;6.55;100.00
50790;BME280;37287;47.554;7.844;2023-04-25T00:16:19;97365.25;;;6.53;100.00
50790;BME280;37287;47.554;7.844;2023-04-25T00:18:46;97369.84;;;6.53;100.00
50790;BME280;37287;47.554;7.844;2023-04-25T00:21:18;97374.47;;;6.52;100.00
50790;BME280;37287;47.554;7.844;2023-04-25T00:23:47;97370.56;;;6.50;100.00
50790;BME280;37287;47.554;7.844;2023-04-25T00:26:14;97370.22;;;6.51;100.00
50790;BME280;37287;47.554;7.844;2023-04-25T00:28:41;97360.94;;;6.49;100.00
50790;BME280;37287;47.554;7.844;2023-04-25T00:31:08;97364.38;;;6.46;100.00
50790;BME280;37287;47.554;7.844;2023-04-25T00:33:34;97365.16;;;6.46;100.00
50790;BME280;37287;47.554;7.844;2023-04-25T00:36:01;97361.28;;;6.44;100.00
50790;BME280;37287;47.554;7.844;2023-04-25T00:38:27;97361.69;;;6.46;100.00
50790;BME280;37287;47.554;7.844;2023-04-25T00:40:54;97358.97;;;6.46;100.00
50790;BME280;37287;47.554;7.844;2023-04-25T00:43:21;97349.69;;;6.40;100.00
50790;BME280;37287;47.554;7.844;2023-04-25T00:45:50;97356.63;;;6.41;100.00
50790;BME280;37287;47.554;7.844;2023-04-25T00:48:19;97350.81;;;6.39;100.00
50790;BME280;37287;47.554;7.844;2023-04-25T00:50:51;97351.13;;;6.33;100.00
50790;BME280;37287;47.554;7.844;2023-04-25T00:53:24;97359.59;;;6.35;100.00
50790;BME280;37287;47.554;7.844;2023-04-25T00:55:52;97360.38;;;6.36;100.00
50790;BME280;37287;47.554;7.844;2023-04-25T00:58:20;97357.28;;;6.34;100.00
50790;BME280;37287;47.554;7.844;2023-04-25T01:00:50;97352.66;;;6.34;100.00
50790;BME280;37287;47.554;7.844;2023-04-25T01:03:18;97358.75;;;6.31;100.00
50790;BME280;37287;47.554;7.844;2023-04-25T01:05:48;97354.16;;;6.32;100.00
50790;BME280;37287;47.554;7.844;2023-04-25T01:08:16;97354.50;;;6.30;100.00
50790;BME280;37287;47.554;7.844;2023-04-25T01:10:43;97353.38;;;6.31;100.00
50790;BME280;37287;47.554;7.844;2023-04-25T01:13:10;97352.25;;;6.32;100.00
50790;BME280;37287;47.554;7.844;2023-04-25T01:15:37;97348.00;;;6.31;100.00
50790;BME280;37287;47.554;7.844;2023-04-25T01:18:04;97349.88;;;6.27;100.00
50790;BME280;37287;47.554;7.844;2023-04-25T01:20:32;97341.81;;;6.27;100.00
50790;BME280;37287;47.554;7.844;2023-04-25T01:23:03;97334.09;;;6.26;100.00
50790;BME280;37287;47.554;7.844;2023-04-25T01:25:30;97325.63;;;6.24;100.00
50790;BME280;37287;47.554;7.844;2023-04-25T01:27:58;97323.97;;;6.15;100.00
50790;BME280;37287;47.554;7.844;2023-04-25T01:30:26;97325.44;;;6.13;100.00
50790;BME280;37287;47.554;7.844;2023-04-25T01:32:58;97326.66;;;6.15;100.00
50790;BME280;37287;47.554;7.844;2023-04-25T01:35:29;97324.22;;;6.07;100.00
50790;BME280;37287;47.554;7.844;2023-04-25T01:37:56;97324.13;;;6.03;100.00
50790;BME280;37287;47.554;7.844;2023-04-25T01:40:24;97312.91;;;5.97;100.00
50790;BME280;37287;47.554;7.844;2023-04-25T01:42:53;97318.53;;;5.92;100.00
50790;BME280;37287;47.554;7.844;2023-04-25T01:45:20;97317.94;;;5.79;100.00
50790;BME280;37287;47.554;7.844;2023-04-25T01:47:47;97323.13;;;5.68;100.00
50790;BME280;37287;47.554;7.844;2023-04-25T01:50:18;97319.66;;;5.68;100.00
50790;BME280;37287;47.554;7.844;2023-04-25T01:52:47;97318.91;;;5.67;100.00
50790;BME280;37287;47.554;7.844;2023-04-25T01:55:14;97308.16;;;5.67;100.00
50790;BME280;37287;47.554;7.844;2023-04-25T01:57:41;97309.34;;;5.70;100.00
50790;BME280;37287;47.554;7.844;2023-04-25T02:00:08;97307.88;;;5.73;100.00
50790;BME280;37287;47.554;7.844;2023-04-25T02:02:35;97300.94;;;5.72;100.00
50790;BME280;37287;47.554;7.844;2023-04-25T02:05:05;97293.31;;;5.54;100.00
50790;BME280;37287;47.554;7.844;2023-04-25T02:07:32;97300.28;;;5.36;100.00
50790;BME280;37287;47.554;7.844;2023-04-25T02:09:59;97299.44;;;5.31;100.00
50790;BME280;37287;47.554;7.844;2023-04-25T02:12:27;97302.59;;;5.37;100.00
50790;BME280;37287;47.554;7.844;2023-04-25T02:14:56;97294.06;;;5.31;100.00
50790;BME280;37287;47.554;7.844;2023-04-25T02:17:23;97296.34;;;5.29;100.00
50790;BME280;37287;47.554;7.844;2023-04-25T02:19:51;97291.91;;;5.18;100.00
50790;BME280;37287;47.554;7.844;2023-04-25T02:22:18;97293.50;;;5.03;100.00
50790;BME280;37287;47.554;7.844;2023-04-25T02:24:47;97297.13;;;4.91;100.00
50790;BME280;37287;47.554;7.844;2023-04-25T02:27:17;97300.91;;;4.90;100.00
50790;BME280;37287;47.554;7.844;2023-04-25T02:29:44;97300.16;;;4.89;100.00
50790;BME280;37287;47.554;7.844;2023-04-25T02:32:11;97300.84;;;4.86;100.00
50790;BME280;37287;47.554;7.844;2023-04-25T02:34:39;97303.00;;;4.80;100.00
50790;BME280;37287;47.554;7.844;2023-04-25T02:37:06;97298.00;;;4.79;100.00
50790;BME280;37287;47.554;7.844;2023-04-25T02:39:32;97298.72;;;4.76;100.00
50790;BME280;37287;47.554;7.844;2023-04-25T02:42:03;97303.66;;;4.74;100.00
50790;BME280;37287;47.554;7.844;2023-04-25T02:44:30;97299.41;;;4.73;100.00
50790;BME280;37287;47.554;7.844;2023-04-25T02:46:58;97294.41;;;4.71;100.00
50790;BME280;37287;47.554;7.844;2023-04-25T02:49:28;97294.06;;;4.73;100.00
50790;BME280;37287;47.554;7.844;2023-04-25T02:51:55;97295.63;;;4.74;100.00
50790;BME280;37287;47.554;7.844;2023-04-25T02:54:21;97296.78;;;4.76;100.00
50790;BME280;37287;47.554;7.844;2023-04-25T02:56:53;97297.25;;;4.78;100.00
50790;BME280;37287;47.554;7.844;2023-04-25T02:59:19;97291.88;;;4.78;100.00
50790;BME280;37287;47.554;7.844;2023-04-25T03:01:46;97292.63;;;4.79;100.00
50790;BME280;37287;47.554;7.844;2023-04-25T03:04:12;97286.88;;;4.77;100.00
50790;BME280;37287;47.554;7.844;2023-04-25T03:06:39;97284.59;;;4.79;100.00
50790;BME280;37287;47.554;7.844;2023-04-25T03:09:06;97284.53;;;4.75;100.00
50790;BME280;37287;47.554;7.844;2023-04-25T03:11:38;97284.03;;;4.70;100.00
50790;BME280;37287;47.554;7.844;2023-04-25T03:14:05;97277.38;;;4.63;100.00
50790;BME280;37287;47.554;7.844;2023-04-25T03:16:31;97270.75;;;4.57;100.00
50790;BME280;37287;47.554;7.844;2023-04-25T03:19:00;97268.41;;;4.56;100.00
50790;BME280;37287;47.554;7.844;2023-04-25T03:21:27;97258.03;;;4.54;100.00
50790;BME280;37287;47.554;7.844;2023-04-25T03:23:53;97257.25;;;4.54;100.00
50790;BME280;37287;47.554;7.844;2023-04-25T03:26:20;97258.03;;;4.54;100.00
50790;BME280;37287;47.554;7.844;2023-04-25T03:28:48;97248.44;;;4.53;100.00
50790;BME280;37287;47.554;7.844;2023-04-25T03:31:16;97237.72;;;4.53;100.00
50790;BME280;37287;47.554;7.844;2023-04-25T03:33:43;97235.75;;;4.50;100.00
50790;BME280;37287;47.554;7.844;2023-04-25T03:36:10;97241.09;;;4.50;100.00
50790;BME280;37287;47.554;7.844;2023-04-25T03:38:36;97241.16;;;4.54;100.00
50790;BME280;37287;47.554;7.844;2023-04-25T03:41:04;97241.16;;;4.54;100.00
50790;BME280;37287;47.554;7.844;2023-04-25T03:43:31;97244.28;;;4.56;100.00
50790;BME280;37287;47.554;7.844;2023-04-25T03:45:57;97238.66;;;4.61;100.00
50790;BME280;37287;47.554;7.844;2023-04-25T03:48:30;97230.31;;;4.66;100.00
50790;BME280;37287;47.554;7.844;2023-04-25T03:50:57;97244.66;;;4.74;100.00
50790;BME280;37287;47.554;7.844;2023-04-25T03:53:24;97243.50;;;4.75;100.00
50790;BME280;37287;47.554;7.844;2023-04-25T03:55:51;97238.50;;;4.73;100.00
50790;BME280;37287;47.554;7.844;2023-04-25T03:58:18;97243.50;;;4.75;100.00
50790;BME280;37287;47.554;7.844;2023-04-25T04:00:44;97235.13;;;4.76;100.00
50790;BME280;37287;47.554;7.844;2023-04-25T04:03:13;97240.16;;;4.78;100.00
50790;BME280;37287;47.554;7.844;2023-04-25T04:05:45;97245.16;;;4.79;100.00
50790;BME280;37287;47.554;7.844;2023-04-25T04:08:13;97249.38;;;4.80;100.00
50790;BME280;37287;47.554;7.844;2023-04-25T04:10:41;97250.09;;;4.77;100.00
50790;BME280;37287;47.554;7.844;2023-04-25T04:13:07;97243.09;;;4.73;100.00
50790;BME280;37287;47.554;7.844;2023-04-25T04:15:34;97243.03;;;4.69;100.00
50790;BME280;37287;47.554;7.844;2023-04-25T04:18:02;97244.94;;;4.69;100.00
50790;BME280;37287;47.554;7.844;2023-04-25T04:20:29;97241.13;;;4.70;100.00
50790;BME280;37287;47.554;7.844;2023-04-25T04:23:01;97246.50;;;4.70;100.00
50790;BME280;37287;47.554;7.844;2023-04-25T04:25:28;97244.66;;;4.74;100.00
50790;BME280;37287;47.554;7.844;2023-04-25T04:27:54;97234.84;;;4.81;100.00
50790;BME280;37287;47.554;7.844;2023-04-25T04:30:23;97238.47;;;4.89;100.00
50790;BME280;37287;47.554;7.844;2023-04-25T04:32:57;97245.22;;;5.03;100.00
50790;BME280;37287;47.554;7.844;2023-04-25T04:35:24;97238.06;;;5.10;100.00
50790;BME280;37287;47.554;7.844;2023-04-25T04:37:51;97231.59;;;5.11;100.00
50790;BME280;37287;47.554;7.844;2023-04-25T04:40:17;97235.38;;;5.10;100.00
50790;BME280;37287;47.554;7.844;2023-04-25T04:42:44;97234.63;;;5.10;100.00
50790;BME280;37287;47.554;7.844;2023-04-25T04:45:14;97231.16;;;5.09;100.00
50790;BME280;37287;47.554;7.844;2023-04-25T04:47:42;97217.28;;;5.04;100.00
50790;BME280;37287;47.554;7.844;2023-04-25T04:50:10;97209.63;;;5.06;100.00
50790;BME280;37287;47.554;7.844;2023-04-25T04:52:37;97219.94;;;5.04;100.00
50790;BME280;37287;47.554;7.844;2023-04-25T04:55:09;97217.53;;;4.98;100.00
50790;BME280;37287;47.554;7.844;2023-04-25T04:57:35;97226.72;;;4.97;100.00
50790;BME280;37287;47.554;7.844;2023-04-25T05:00:02;97232.03;;;4.94;100.00
50790;BME280;37287;47.554;7.844;2023-04-25T05:02:31;97229.00;;;4.95;100.00
50790;BME280;37287;47.554;7.844;2023-04-25T05:04:58;97220.94;;;4.95;100.00
50790;BME280;37287;47.554;7.844;2023-04-25T05:07:24;97229.13;;;5.03;100.00
50790;BME280;37287;47.554;7.844;2023-04-25T05:09:53;97236.94;;;5.11;100.00
50790;BME280;37287;47.554;7.844;2023-04-25T05:12:20;97290.91;;;5.06;100.00
50790;BME280;37287;47.554;7.844;2023-04-25T05:14:46;97346.66;;;4.97;100.00
50790;BME280;37287;47.554;7.844;2023-04-25T05:17:17;97361.28;;;4.64;100.00
50790;BME280;37287;47.554;7.844;2023-04-25T05:19:45;97364.16;;;4.55;100.00
50790;BME280;37287;47.554;7.844;2023-04-25T05:22:12;97359.81;;;4.51;100.00
50790;BME280;37287;47.554;7.844;2023-04-25T05:24:39;97356.72;;;4.48;100.00
50790;BME280;37287;47.554;7.844;2023-04-25T05:27:05;97352.13;;;4.49;100.00
50790;BME280;37287;47.554;7.844;2023-04-25T05:29:32;97347.22;;;4.51;100.00
50790;BME280;37287;47.554;7.844;2023-04-25T05:32:01;97338.47;;;4.54;100.00
50790;BME280;37287;47.554;7.844;2023-04-25T05:34:28;97331.19;;;4.55;100.00
50790;BME280;37287;47.554;7.844;2023-04-25T05:36:56;97323.25;;;4.58;100.00
50790;BME280;37287;47.554;7.844;2023-04-25T05:39:27;97315.63;;;4.60;100.00
50790;BME280;37287;47.554;7.844;2023-04-25T05:41:53;97315.78;;;4.68;100.00
50790;BME280;37287;47.554;7.844;2023-04-25T05:44:20;97313.09;;;4.68;100.00
50790;BME280;37287;47.554;7.844;2023-04-25T05:46:47;97305.50;;;4.70;100.00
50790;BME280;37287;47.554;7.844;2023-04-25T05:49:15;97308.94;;;4.70;100.00
50790;BME280;37287;47.554;7.844;2023-04-25T05:51:44;97313.69;;;4.77;100.00
50790;BME280;37287;47.554;7.844;2023-04-25T05:54:13;97315.66;;;4.80;100.00
50790;BME280;37287;47.554;7.844;2023-04-25T05:56:40;97319.19;;;4.84;100.00
50790;BME280;37287;47.554;7.844;2023-04-25T05:59:08;97327.59;;;4.82;100.00
50790;BME280;37287;47.554;7.844;2023-04-25T06:01:41;97318.13;;;4.89;100.00
50790;BME280;37287;47.554;7.844;2023-04-25T06:04:08;97314.38;;;4.93;100.00
50790;BME280;37287;47.554;7.844;2023-04-25T06:06:35;97312.84;;;4.92;100.00
50790;BME280;37287;47.554;7.844;2023-04-25T06:09:05;97316.81;;;4.98;100.00
50790;BME280;37287;47.554;7.844;2023-04-25T06:11:31;97321.03;;;4.99;100.00
50790;BME280;37287;47.554;7.844;2023-04-25T06:13:58;97320.34;;;5.03;100.00
50790;BME280;37287;47.554;7.844;2023-04-25T06:16:25;97320.06;;;5.08;100.00
50790;BME280;37287;47.554;7.844;2023-04-25T06:18:52;97319.63;;;5.06;100.00
50790;BME280;37287;47.554;7.844;2023-04-25T06:21:21;97319.38;;;5.11;100.00
50790;BME280;37287;47.554;7.844;2023-04-25T06:23:49;97327.56;;;5.18;100.00
50790;BME280;37287;47.554;7.844;2023-04-25T06:26:16;97326.78;;;5.18;100.00
50790;BME280;37287;47.554;7.844;2023-04-25T06:28:43;97333.69;;;5.19;100.00
50790;BME280;37287;47.554;7.844;2023-04-25T06:31:11;97330.25;;;5.18;100.00
50790;BME280;37287;47.554;7.844;2023-04-25T06:33:38;97342.88;;;5.18;100.00
50790;BME280;37287;47.554;7.844;2023-04-25T06:36:05;97334.03;;;5.17;100.00
50790;BME280;37287;47.554;7.844;2023-04-25T06:38:33;97334.03;;;5.17;100.00
50790;BME280;37287;47.554;7.844;2023-04-25T06:41:01;97334.34;;;5.12;100.00
50790;BME280;37287;47.554;7.844;2023-04-25T06:43:27;97335.25;;;5.20;100.00
50790;BME280;37287;47.554;7.844;2023-04-25T06:45:56;97338.44;;;5.25;100.00
50790;BME280;37287;47.554;7.844;2023-04-25T06:48:23;97343.53;;;5.30;100.00
50790;BME280;37287;47.554;7.844;2023-04-25T06:50:49;97340.03;;;5.30;100.00
50790;BME280;37287;47.554;7.844;2023-04-25T06:53:16;97351.22;;;5.32;100.00
50790;BME280;37287;47.554;7.844;2023-04-25T06:55:43;97340.84;;;5.30;100.00
50790;BME280;37287;47.554;7.844;2023-04-25T06:58:09;97347.81;;;5.35;100.00
50790;BME280;37287;47.554;7.844;2023-04-25T07:00:44;97355.47;;;5.33;100.00
50790;BME280;37287;47.554;7.844;2023-04-25T07:03:10;97357.00;;;5.34;100.00
50790;BME280;37287;47.554;7.844;2023-04-25T07:05:37;97351.34;;;5.39;100.00
50790;BME280;37287;47.554;7.844;2023-04-25T07:08:04;97355.59;;;5.40;100.00
50790;BME280;37287;47.554;7.844;2023-04-25T07:10:31;97362.16;;;5.43;100.00
50790;BME280;37287;47.554;7.844;2023-04-25T07:12:59;97361.81;;;5.44;100.00
50790;BME280;37287;47.554;7.844;2023-04-25T07:15:32;97361.47;;;5.46;100.00
50790;BME280;37287;47.554;7.844;2023-04-25T07:17:59;97350.78;;;5.49;100.00
50790;BME280;37287;47.554;7.844;2023-04-25T07:20:26;97361.88;;;5.48;100.00
50790;BME280;37287;47.554;7.844;2023-04-25T07:22:55;97363.00;;;5.47;100.00
50790;BME280;37287;47.554;7.844;2023-04-25T07:25:24;97357.28;;;5.48;100.00
50790;BME280;37287;47.554;7.844;2023-04-25T07:27:51;97365.69;;;5.47;100.00
50790;BME280;37287;47.554;7.844;2023-04-25T07:30:19;97361.88;;;5.48;100.00
50790;BME280;37287;47.554;7.844;2023-04-25T07:32:46;97364.63;;;5.51;100.00
50790;BME280;37287;47.554;7.844;2023-04-25T07:35:12;97371.91;;;5.51;100.00
50790;BME280;37287;47.554;7.844;2023-04-25T07:37:39;97366.63;;;5.55;100.00
50790;BME280;37287;47.554;7.844;2023-04-25T07:40:06;97376.56;;;5.54;100.00
50790;BME280;37287;47.554;7.844;2023-04-25T07:42:34;97379.25;;;5.54;100.00
50790;BME280;37287;47.554;7.844;2023-04-25T07:45:03;97383.13;;;5.57;100.00
50790;BME280;37287;47.554;7.844;2023-04-25T07:47:29;97387.38;;;5.58;100.00
50790;BME280;37287;47.554;7.844;2023-04-25T07:49:56;97385.81;;;5.57;100.00
50790;BME280;37287;47.554;7.844;2023-04-25T07:52:25;97392.00;;;5.57;100.00
50790;BME280;37287;47.554;7.844;2023-04-25T07:54:52;97396.50;;;5.53;100.00
50790;BME280;37287;47.554;7.844;2023-04-25T07:57:19;97394.94;;;5.52;100.00
50790;BME280;37287;47.554;7.844;2023-04-25T07:59:48;97396.44;;;5.49;100.00
50790;BME280;37287;47.554;7.844;2023-04-25T08:02:15;97405.69;;;5.52;100.00
50790;BME280;37287;47.554;7.844;2023-04-25T08:04:41;97413.03;;;5.55;100.00
50790;BME280;37287;47.554;7.844;2023-04-25T08:07:10;97410.44;;;5.59;100.00
50790;BME280;37287;47.554;7.844;2023-04-25T08:09:39;97412.44;;;5.65;100.00
50790;BME280;37287;47.554;7.844;2023-04-25T08:12:05;97420.09;;;5.83;100.00
50790;BME280;37287;47.554;7.844;2023-04-25T08:14:32;97418.94;;;6.03;100.00
50790;BME280;37287;47.554;7.844;2023-04-25T08:17:03;97431.50;;;6.19;100.00
50790;BME280;37287;47.554;7.844;2023-04-25T08:19:31;97429.09;;;6.33;100.00
50790;BME280;37287;47.554;7.844;2023-04-25T08:22:02;97432.75;;;6.45;100.00
50790;BME280;37287;47.554;7.844;2023-04-25T08:24:29;97437.19;;;6.60;100.00
50790;BME280;37287;47.554;7.844;2023-04-25T08:26:56;97432.38;;;6.69;100.00
50790;BME280;37287;47.554;7.844;2023-04-25T08:29:24;97441.81;;;6.83;100.00
50790;BME280;37287;47.554;7.844;2023-04-25T08:31:52;97441.22;;;6.97;100.00
50790;BME280;37287;47.554;7.844;2023-04-25T08:34:19;97453.28;;;7.06;100.00
50790;BME280;37287;47.554;7.844;2023-04-25T08:36:47;97452.47;;;7.02;100.00
50790;BME280;37287;47.554;7.844;2023-04-25T08:39:13;97469.75;;;7.01;100.00
50790;BME280;37287;47.554;7.844;2023-04-25T08:41:40;97462.81;;;7.00;100.00
50790;BME280;37287;47.554;7.844;2023-04-25T08:44:10;97470.44;;;6.95;100.00
50790;BME280;37287;47.554;7.844;2023-04-25T08:46:40;97477.31;;;6.92;100.00
50790;BME280;37287;47.554;7.844;2023-04-25T08:49:08;97478.88;;;6.93;100.00
50790;BME280;37287;47.554;7.844;2023-04-25T08:51:45;97486.50;;;6.91;100.00
50790;BME280;37287;47.554;7.844;2023-04-25T08:54:19;97488.97;;;7.00;100.00
50790;BME280;37287;47.554;7.844;2023-04-25T08:56:56;97486.06;;;7.12;100.00
50790;BME280;37287;47.554;7.844;2023-04-25T08:59:26;97485.81;;;7.21;100.00
50790;BME280;37287;47.554;7.844;2023-04-25T09:01:57;97483.09;;;7.21;100.00
50790;BME280;37287;47.554;7.844;2023-04-25T09:04:26;97495.19;;;7.31;100.00
50790;BME280;37287;47.554;7.844;2023-04-25T09:06:53;97494.03;;;7.32;100.00
50790;BME280;37287;47.554;7.844;2023-04-25T09:09:20;97499.91;;;7.37;100.00
50790;BME280;37287;47.554;7.844;2023-04-25T09:11:46;97502.59;;;7.37;100.00
50790;BME280;37287;47.554;7.844;2023-04-25T09:14:18;97510.97;;;7.32;100.00
50790;BME280;37287;47.554;7.844;2023-04-25T09:19:35;97512.91;;;7.32;100.00
50790;BME280;37287;47.554;7.844;2023-04-25T09:22:08;97513.78;;;7.39;100.00
50790;BME280;37287;47.554;7.844;2023-04-25T09:24:40;97514.03;;;7.57;100.00
50790;BME280;37287;47.554;7.844;2023-04-25T09:27:11;97519.16;;;7.66;100.00
50790;BME280;37287;47.554;7.844;2023-04-25T09:29:39;97521.84;;;7.66;100.00
50790;BME280;37287;47.554;7.844;2023-04-25T09:32:23;97523.44;;;7.71;100.00
50790;BME280;37287;47.554;7.844;2023-04-25T09:34:52;97526.91;;;7.71;100.00
50790;BME280;37287;47.554;7.844;2023-04-25T09:39:58;97526.69;;;7.84;100.00
50790;BME280;37287;47.554;7.844;2023-04-25T09:42:29;97523.97;;;8.14;100.00
50790;BME280;37287;47.554;7.844;2023-04-25T09:44:58;97529.41;;;8.18;100.00
50790;BME280;37287;47.554;7.844;2023-04-25T09:47:26;97528.34;;;8.26;100.00
50790;BME280;37287;47.554;7.844;2023-04-25T09:49:53;97527.69;;;8.36;100.00
50790;BME280;37287;47.554;7.844;2023-04-25T09:52:22;97530.38;;;8.33;100.00
50790;BME280;37287;47.554;7.844;2023-04-25T09:54:51;97530.00;;;8.38;100.00
50790;BME280;37287;47.554;7.844;2023-04-25T09:57:26;97523.22;;;8.48;100.00
50790;BME280;37287;47.554;7.844;2023-04-25T09:59:55;97533.09;;;8.36;100.00
50790;BME280;37287;47.554;7.844;2023-04-25T10:02:26;97527.94;;;8.24;100.00
50790;BME280;37287;47.554;7.844;2023-04-25T10:04:54;97527.53;;;8.22;100.00
50790;BME280;37287;47.554;7.844;2023-04-25T10:07:25;97526.72;;;8.18;100.00
50790;BME280;37287;47.554;7.844;2023-04-25T10:10:02;97526.94;;;8.39;100.00
50790;BME280;37287;47.554;7.844;2023-04-25T10:12:30;97531.28;;;8.85;100.00
50790;BME280;37287;47.554;7.844;2023-04-25T10:14:58;97526.38;;;8.98;100.00
50790;BME280;37287;47.554;7.844;2023-04-25T10:17:26;97528.44;;;9.16;100.00
50790;BME280;37287;47.554;7.844;2023-04-25T10:19:56;97531.00;;;9.50;100.00
50790;BME280;37287;47.554;7.844;2023-04-25T10:22:29;97522.91;;;9.53;100.00
50790;BME280;37287;47.554;7.844;2023-04-25T10:25:00;97527.94;;;9.55;100.00
50790;BME280;37287;47.554;7.844;2023-04-25T10:27:30;97525.59;;;9.50;100.00
50790;BME280;37287;47.554;7.844;2023-04-25T10:32:33;97529.91;;;9.61;100.00
50790;BME280;37287;47.554;7.844;2023-04-25T10:35:17;97519.63;;;9.89;100.00
50790;BME280;37287;47.554;7.844;2023-04-25T10:38:05;97531.38;;;10.29;100.00
50790;BME280;37287;47.554;7.844;2023-04-25T10:40:32;97522.97;;;10.59;99.92
50790;BME280;37287;47.554;7.844;2023-04-25T10:46:02;97530.69;;;10.50;93.87
50790;BME280;37287;47.554;7.844;2023-04-25T10:48:44;97535.34;;;10.64;95.76
50790;BME280;37287;47.554;7.844;2023-04-25T10:51:16;97535.38;;;10.71;93.98
50790;BME280;37287;47.554;7.844;2023-04-25T10:53:45;97540.72;;;10.46;92.29
50790;BME280;37287;47.554;7.844;2023-04-25T10:56:30;97548.38;;;10.26;95.42
50790;BME280;37287;47.554;7.844;2023-04-25T11:01:45;97556.63;;;9.70;98.95
50790;BME280;37287;47.554;7.844;2023-04-25T11:04:22;97556.88;;;9.51;100.00
50790;BME280;37287;47.554;7.844;2023-04-25T11:09:41;97558.38;;;9.48;100.00
50790;BME280;37287;47.554;7.844;2023-04-25T11:12:09;97551.66;;;9.87;100.00
50790;BME280;37287;47.554;7.844;2023-04-25T11:14:38;97552.91;;;10.00;100.00
50790;BME280;37287;47.554;7.844;2023-04-25T11:17:11;97541.38;;;10.18;100.00
50790;BME280;37287;47.554;7.844;2023-04-25T11:19:40;97536.47;;;10.41;100.00
50790;BME280;37287;47.554;7.844;2023-04-25T11:22:17;97543.88;;;10.62;100.00
50790;BME280;37287;47.554;7.844;2023-04-25T11:24:45;97533.84;;;10.88;99.44
50790;BME280;37287;47.554;7.844;2023-04-25T11:27:12;97535.78;;;11.09;98.49
50790;BME280;37287;47.554;7.844;2023-04-25T11:29:40;97535.41;;;11.22;97.22
50790;BME280;37287;47.554;7.844;2023-04-25T11:32:07;97528.81;;;11.15;93.85
50790;BME280;37287;47.554;7.844;2023-04-25T11:34:34;97530.75;;;11.26;93.83
50790;BME280;37287;47.554;7.844;2023-04-25T11:37:03;97533.84;;;11.39;93.76
50790;BME280;37287;47.554;7.844;2023-04-25T11:39:30;97527.22;;;11.58;90.62
50790;BME280;37287;47.554;7.844;2023-04-25T11:41:57;97520.66;;;11.51;91.17
50790;BME280;37287;47.554;7.844;2023-04-25T11:44:28;97521.47;;;11.23;91.12
50790;BME280;37287;47.554;7.844;2023-04-25T11:46:58;97525.31;;;11.36;90.01
50790;BME280;37287;47.554;7.844;2023-04-25T11:49:30;97523.38;;;11.55;87.83
50790;BME280;37287;47.554;7.844;2023-04-25T11:52:22;97523.72;;;11.75;84.12
50790;BME280;37287;47.554;7.844;2023-04-25T11:54:56;97522.50;;;11.87;85.55
50790;BME280;37287;47.554;7.844;2023-04-25T11:57:23;97525.97;;;11.87;84.50
50790;BME280;37287;47.554;7.844;2023-04-25T11:59:50;97524.06;;;11.95;83.88
50790;BME280;37287;47.554;7.844;2023-04-25T12:02:27;97531.78;;;11.86;84.22
50790;BME280;37287;47.554;7.844;2023-04-25T12:04:59;97529.09;;;11.86;84.86
50790;BME280;37287;47.554;7.844;2023-04-25T12:07:46;97533.03;;;11.56;72.69
50790;BME280;37287;47.554;7.844;2023-04-25T12:10:14;97540.81;;;11.40;82.88
50790;BME280;37287;47.554;7.844;2023-04-25T12:12:43;97536.97;;;11.23;83.84
50790;BME280;37287;47.554;7.844;2023-04-25T12:15:16;97537.72;;;11.41;84.24
50790;BME280;37287;47.554;7.844;2023-04-25T12:17:47;97535.34;;;11.72;81.20
50790;BME280;37287;47.554;7.844;2023-04-25T12:20:15;97530.72;;;11.65;80.37
50790;BME280;37287;47.554;7.844;2023-04-25T12:22:45;97543.88;;;11.60;76.28
50790;BME280;37287;47.554;7.844;2023-04-25T12:28:21;97541.59;;;11.40;78.42
50790;BME280;37287;47.554;7.844;2023-04-25T12:31:03;97536.19;;;11.26;79.07
50790;BME280;37287;47.554;7.844;2023-04-25T12:33:36;97554.38;;;11.14;80.43
50790;BME280;37287;47.554;7.844;2023-04-25T12:36:05;97551.66;;;11.04;81.94
50790;BME280;37287;47.554;7.844;2023-04-25T12:38:39;97560.16;;;10.98;82.62
50790;BME280;37287;47.554;7.844;2023-04-25T12:41:08;97566.75;;;10.83;84.46
50790;BME280;37287;47.554;7.844;2023-04-25T12:43:35;97572.50;;;10.71;85.81
50790;BME280;37287;47.554;7.844;2023-04-25T12:46:02;97578.28;;;10.55;86.64
50790;BME280;37287;47.554;7.844;2023-04-25T12:48:29;97580.94;;;10.44;86.84
50790;BME280;37287;47.554;7.844;2023-04-25T12:51:01;97582.50;;;10.52;88.86
50790;BME280;37287;47.554;7.844;2023-04-25T12:53:28;97579.78;;;10.48;88.28
50790;BME280;37287;47.554;7.844;2023-04-25T12:55:54;97580.97;;;10.55;87.78
50790;BME280;37287;47.554;7.844;2023-04-25T12:58:22;97581.00;;;10.62;87.98
50790;BME280;37287;47.554;7.844;2023-04-25T13:00:49;97578.31;;;10.69;87.81
50790;BME280;37287;47.554;7.844;2023-04-25T13:03:19;97587.19;;;10.66;88.70
50790;BME280;37287;47.554;7.844;2023-04-25T13:05:45;97592.56;;;10.52;86.57
50790;BME280;37287;47.554;7.844;2023-04-25T13:08:12;97591.75;;;10.47;87.57
50790;BME280;37287;47.554;7.844;2023-04-25T13:10:48;97595.66;;;10.54;87.46
50790;BME280;37287;47.554;7.844;2023-04-25T13:13:14;97586.81;;;10.71;88.89
50790;BME280;37287;47.554;7.844;2023-04-25T13:15:44;97588.81;;;10.96;87.55
50790;BME280;37287;47.554;7.844;2023-04-25T13:18:14;97582.63;;;11.13;86.73
50790;BME280;37287;47.554;7.844;2023-04-25T13:20:41;97585.72;;;11.37;85.97
50790;BME280;37287;47.554;7.844;2023-04-25T13:23:09;97573.34;;;11.36;74.98
50790;BME280;37287;47.554;7.844;2023-04-25T13:25:46;97579.50;;;11.69;79.00
50790;BME280;37287;47.554;7.844;2023-04-25T13:28:13;97584.09;;;11.90;78.66